createdAt,value
2022-11-16T00:02:05.325Z,14.57
2022-11-16T00:04:51.005Z,10.85
2022-11-16T00:07:36.837Z,9.07
2022-11-16T00:10:22.451Z,10.20
2022-11-16T00:13:09.267Z,11.32
2022-11-16T00:15:58.528Z,13.35
2022-11-16T00:18:45.282Z,11.65
2022-11-16T00:21:32.009Z,15.38
2022-11-16T00:24:19.174Z,14.60
2022-11-16T00:27:04.870Z,11.50
2022-11-16T00:29:50.437Z,13.07
2022-11-16T00:32:36.446Z,11.55
2022-11-16T00:35:22.273Z,12.27
2022-11-16T00:38:08.076Z,13.05
2022-11-16T00:40:53.774Z,13.73
2022-11-16T00:43:39.457Z,13.10
2022-11-16T00:46:24.828Z,13.30
2022-11-16T00:49:10.882Z,14.00
2022-11-16T00:51:58.610Z,13.82
2022-11-16T00:54:44.262Z,13.32
2022-11-16T00:57:29.768Z,12.82
2022-11-16T01:00:15.682Z,15.07
2022-11-16T01:03:01.228Z,15.38
2022-11-16T01:05:47.119Z,13.77
2022-11-16T01:08:33.921Z,13.60
2022-11-16T01:11:38.667Z,16.70
2022-11-16T01:14:24.144Z,15.55
2022-11-16T01:17:09.460Z,15.03
2022-11-16T01:19:55.141Z,16.42
2022-11-16T01:22:41.433Z,14.77
2022-11-16T01:25:26.893Z,14.30
2022-11-16T01:28:12.392Z,14.88
2022-11-16T01:30:58.177Z,14.95
2022-11-16T01:33:44.035Z,15.30
2022-11-16T01:36:29.752Z,16.17
2022-11-16T01:39:16.389Z,15.13
2022-11-16T01:42:02.848Z,16.50
2022-11-16T01:44:48.468Z,15.17
2022-11-16T01:47:34.804Z,17.13
2022-11-16T01:50:21.551Z,13.65
2022-11-16T01:53:08.978Z,15.32
2022-11-16T01:55:54.626Z,20.70
2022-11-16T01:58:41.243Z,17.40
2022-11-16T02:01:26.746Z,17.30
2022-11-16T02:04:13.770Z,14.52
2022-11-16T06:27:50.896Z,15.90
2022-11-16T06:30:38.430Z,14.95
2022-11-16T06:33:23.977Z,14.90
2022-11-16T06:36:09.615Z,14.75
2022-11-16T06:38:55.298Z,15.07
2022-11-16T06:41:41.640Z,20.05
2022-11-16T06:44:27.127Z,15.82
2022-11-16T06:47:12.578Z,15.10
2022-11-16T06:49:57.879Z,16.45
2022-11-16T06:52:43.755Z,15.93
2022-11-16T17:28:04.935Z,13.23
2022-11-16T17:30:50.204Z,10.68
2022-11-16T17:33:40.144Z,12.05
2022-11-16T17:36:25.533Z,11.00
2022-11-16T17:39:11.035Z,9.75
2022-11-16T17:41:56.441Z,12.57
2022-11-16T17:44:41.667Z,10.23
2022-11-16T17:47:35.625Z,12.23
2022-11-16T17:50:20.899Z,7.20
2022-11-16T17:53:06.736Z,9.07
2022-11-16T17:55:52.468Z,8.75
2022-11-16T17:58:37.736Z,9.70
2022-11-16T18:01:23.786Z,6.57
2022-11-16T18:04:09.308Z,8.30
2022-11-16T18:06:55.819Z,8.47
2022-11-16T18:09:41.585Z,5.45
2022-11-16T18:12:26.877Z,6.63
2022-11-16T18:15:28.006Z,5.50
2022-11-16T18:18:14.325Z,6.03
2022-11-16T18:21:01.078Z,4.95
2022-11-16T18:23:46.405Z,6.18
2022-11-16T18:26:32.143Z,6.22
2022-11-16T18:29:19.315Z,4.67
2022-11-16T18:32:04.689Z,4.78
2022-11-16T18:34:50.048Z,4.22
2022-11-16T18:37:36.073Z,5.47
2022-11-16T18:40:21.652Z,4.88
2022-11-16T18:43:14.802Z,3.90
2022-11-16T18:46:00.435Z,5.85
2022-11-16T18:48:46.692Z,6.07
2022-11-16T18:51:33.152Z,4.30
2022-11-16T18:54:18.630Z,3.15
2022-11-16T18:57:04.118Z,3.40
2022-11-16T18:59:49.627Z,3.93
2022-11-16T19:02:35.462Z,3.67
2022-11-16T19:05:21.034Z,4.90
2022-11-16T19:08:06.902Z,3.63
2022-11-16T19:10:52.097Z,5.00
2022-11-16T19:13:38.754Z,4.05
2022-11-16T19:16:24.812Z,3.37
2022-11-16T19:19:12.905Z,3.15
2022-11-16T19:21:58.407Z,3.05
2022-11-16T19:24:44.113Z,3.38
2022-11-16T19:27:30.314Z,3.08
2022-11-16T19:30:16.188Z,4.18
2022-11-16T19:33:02.472Z,2.45
2022-11-16T19:35:49.289Z,3.13
2022-11-16T19:38:35.165Z,2.70
2022-11-16T19:41:22.684Z,2.70
2022-11-16T19:44:08.494Z,1.88
2022-11-16T19:46:54.482Z,3.60
2022-11-16T19:49:40.315Z,3.17
2022-11-16T19:52:25.774Z,3.17
2022-11-16T19:55:11.320Z,2.33
2022-11-16T19:57:56.708Z,4.20
2022-11-16T20:00:50.912Z,3.03
2022-11-16T20:03:38.361Z,3.53
2022-11-16T20:06:29.666Z,4.03
2022-11-16T20:09:15.393Z,3.55
2022-11-16T20:12:01.347Z,4.15
2022-11-16T20:14:47.086Z,3.70
2022-11-16T20:17:32.872Z,2.93
2022-11-16T20:20:18.759Z,4.55
2022-11-16T20:23:04.558Z,5.18
2022-11-16T20:25:50.186Z,3.47
2022-11-16T20:28:41.027Z,3.75
2022-11-16T20:31:28.847Z,5.68
2022-11-16T20:34:16.277Z,3.40
2022-11-16T20:37:02.157Z,6.22
2022-11-16T20:39:52.611Z,3.30
2022-11-16T20:42:38.301Z,4.30
2022-11-16T20:45:23.811Z,5.72
2022-11-16T20:48:09.573Z,4.63
2022-11-16T20:50:55.259Z,3.92
2022-11-16T20:53:41.002Z,4.13
2022-11-16T20:56:27.191Z,4.17
2022-11-16T20:59:12.851Z,5.47
2022-11-16T21:01:58.642Z,4.70
2022-11-16T21:04:44.584Z,5.18
2022-11-16T21:07:30.842Z,3.85
2022-11-16T21:10:19.665Z,4.90
2022-11-16T21:13:25.042Z,4.83
2022-11-16T21:16:13.739Z,5.28
2022-11-16T21:18:59.208Z,5.50
2022-11-16T21:21:45.199Z,5.82
2022-11-16T21:24:32.173Z,4.53
2022-11-16T21:27:17.993Z,5.57
2022-11-16T21:30:03.993Z,5.97
2022-11-16T21:32:49.712Z,5.18
2022-11-16T21:35:35.496Z,5.15
2022-11-16T21:38:23.159Z,6.40
2022-11-16T21:41:10.736Z,4.73
2022-11-16T21:43:56.297Z,5.00
2022-11-16T21:46:42.057Z,7.70
2022-11-16T21:49:27.802Z,6.73
2022-11-16T21:52:13.750Z,5.23
2022-11-16T21:54:59.424Z,7.90
2022-11-16T21:57:45.203Z,5.57
2022-11-16T22:00:30.779Z,3.97
2022-11-16T22:03:16.295Z,6.93
2022-11-16T22:06:22.673Z,5.47
2022-11-16T22:09:08.311Z,6.05
2022-11-16T22:11:53.983Z,4.25
2022-11-16T22:14:39.869Z,4.93
2022-11-16T22:17:26.448Z,6.15
2022-11-16T22:20:12.912Z,5.93
2022-11-16T22:22:58.566Z,6.40
2022-11-16T22:25:44.480Z,5.63
2022-11-16T22:28:31.783Z,5.50
2022-11-16T22:31:17.877Z,4.80
2022-11-16T22:34:03.601Z,4.25
2022-11-16T22:36:49.035Z,5.82
2022-11-16T22:39:35.221Z,6.50
2022-11-16T22:42:20.798Z,6.57
2022-11-16T22:45:06.583Z,4.20
2022-11-16T22:47:54.852Z,3.92
2022-11-16T22:50:43.566Z,5.72
2022-11-16T22:53:29.322Z,6.05
2022-11-16T22:56:14.976Z,5.82
2022-11-16T22:59:02.348Z,6.80
2022-11-16T23:01:48.215Z,5.15
2022-11-16T23:04:36.340Z,5.50
2022-11-16T23:07:22.398Z,5.28
2022-11-16T23:10:08.603Z,4.32
2022-11-16T23:13:12.687Z,6.35
2022-11-16T23:16:04.258Z,4.07
2022-11-16T23:18:50.155Z,4.90
2022-11-16T23:21:54.907Z,4.68
2022-11-16T23:24:59.539Z,4.65
2022-11-16T23:27:59.864Z,4.95
2022-11-16T23:30:45.353Z,4.28
2022-11-16T23:33:46.477Z,5.10
2022-11-16T23:36:32.069Z,5.37
2022-11-16T23:39:18.052Z,4.82
2022-11-16T23:42:22.796Z,5.60
2022-11-16T23:45:08.722Z,5.38
2022-11-16T23:47:54.248Z,5.05
2022-11-16T23:50:40.549Z,6.07
2022-11-16T23:53:26.055Z,5.05
2022-11-16T23:56:14.276Z,4.80
2022-11-16T23:58:59.872Z,5.85
